sensor_id;sensor_type;location;lat;lon;timestamp;pressure;altitude;pressure_sealevel;temperature;humidity
1726;BME280;41776;48.260;8.928;2022-10-26T00:00:41;52527.56;;;-145.69;100.00
1726;BME280;41776;48.260;8.928;2022-10-26T00:03:07;52468.16;;;-145.69;100.00
1726;BME280;41776;48.260;8.928;2022-10-26T00:05:34;52480.03;;;-145.69;100.00
1726;BME280;41776;48.260;8.928;2022-10-26T00:08:00;52472.13;;;-145.69;100.00
1726;BME280;41776;48.260;8.928;2022-10-26T00:10:27;52452.31;;;-145.69;100.00
1726;BME280;41776;48.260;8.928;2022-10-26T00:12:54;52428.53;;;-145.69;100.00
1726;BME280;41776;48.260;8.928;2022-10-26T00:15:22;52460.22;;;-145.69;100.00
1726;BME280;41776;48.260;8.928;2022-10-26T00:17:49;52487.97;;;-145.69;100.00
1726;BME280;41776;48.260;8.928;2022-10-26T00:20:16;52462.22;;;-145.69;100.00
1726;BME280;41776;48.260;8.928;2022-10-26T00:22:42;52452.31;;;-145.69;100.00
1726;BME280;41776;48.260;8.928;2022-10-26T00:25:09;52468.16;;;-145.69;100.00
1726;BME280;41776;48.260;8.928;2022-10-26T00:27:35;52472.13;;;-145.69;100.00
1726;BME280;41776;48.260;8.928;2022-10-26T00:30:03;52464.19;;;-145.69;100.00
1726;BME280;41776;48.260;8.928;2022-10-26T00:32:32;52491.91;;;-145.69;100.00
1726;BME280;41776;48.260;8.928;2022-10-26T00:34:59;52460.22;;;-145.69;100.00
1726;BME280;41776;48.260;8.928;2022-10-26T00:37:26;52476.06;;;-145.69;100.00
1726;BME280;41776;48.260;8.928;2022-10-26T00:39:52;52476.06;;;-145.69;100.00
1726;BME280;41776;48.260;8.928;2022-10-26T00:42:20;52480.03;;;-145.69;100.00
1726;BME280;41776;48.260;8.928;2022-10-26T00:44:59;52438.44;;;-145.69;100.00
1726;BME280;41776;48.260;8.928;2022-10-26T00:47:39;52464.19;;;-145.69;100.00
1726;BME280;41776;48.260;8.928;2022-10-26T00:50:10;52472.13;;;-145.69;100.00
1726;BME280;41776;48.260;8.928;2022-10-26T00:52:40;52485.97;;;-145.69;100.00
1726;BME280;41776;48.260;8.928;2022-10-26T00:55:08;52482.00;;;-145.69;100.00
1726;BME280;41776;48.260;8.928;2022-10-26T00:57:35;52462.22;;;-145.69;100.00
1726;BME280;41776;48.260;8.928;2022-10-26T01:00:03;52499.84;;;-145.69;100.00
1726;BME280;41776;48.260;8.928;2022-10-26T01:02:30;52497.84;;;-145.69;100.00
1726;BME280;41776;48.260;8.928;2022-10-26T01:05:00;52474.09;;;-145.69;100.00
1726;BME280;41776;48.260;8.928;2022-10-26T01:07:28;52460.22;;;-145.69;100.00
1726;BME280;41776;48.260;8.928;2022-10-26T01:09:55;52472.13;;;-145.69;100.00
1726;BME280;41776;48.260;8.928;2022-10-26T01:12:22;52487.97;;;-145.69;100.00
1726;BME280;41776;48.260;8.928;2022-10-26T01:14:48;52460.22;;;-145.69;100.00
1726;BME280;41776;48.260;8.928;2022-10-26T01:17:38;52497.84;;;-145.69;100.00
1726;BME280;41776;48.260;8.928;2022-10-26T01:20:29;52489.94;;;-145.69;100.00
1726;BME280;41776;48.260;8.928;2022-10-26T01:23:06;52428.53;;;-145.69;100.00
1726;BME280;41776;48.260;8.928;2022-10-26T01:26:04;52511.72;;;-145.69;100.00
1726;BME280;41776;48.260;8.928;2022-10-26T01:28:51;52491.91;;;-145.69;100.00
1726;BME280;41776;48.260;8.928;2022-10-26T01:31:28;52515.69;;;-145.69;100.00
1726;BME280;41776;48.260;8.928;2022-10-26T01:34:00;52485.97;;;-145.69;100.00
1726;BME280;41776;48.260;8.928;2022-10-26T01:36:31;52450.31;;;-145.69;100.00
1726;BME280;41776;48.260;8.928;2022-10-26T01:39:03;52448.34;;;-145.69;100.00
1726;BME280;41776;48.260;8.928;2022-10-26T01:41:36;52501.81;;;-145.69;100.00
1726;BME280;41776;48.260;8.928;2022-10-26T01:44:08;52464.19;;;-145.69;100.00
1726;BME280;41776;48.260;8.928;2022-10-26T01:46:38;52513.69;;;-145.69;100.00
1726;BME280;41776;48.260;8.928;2022-10-26T01:49:10;52491.91;;;-145.69;100.00
1726;BME280;41776;48.260;8.928;2022-10-26T01:51:38;52482.00;;;-145.69;100.00
1726;BME280;41776;48.260;8.928;2022-10-26T01:54:05;52503.81;;;-145.69;100.00
1726;BME280;41776;48.260;8.928;2022-10-26T01:56:35;52503.81;;;-145.69;100.00
1726;BME280;41776;48.260;8.928;2022-10-26T01:59:15;52464.19;;;-145.69;100.00
1726;BME280;41776;48.260;8.928;2022-10-26T02:04:50;52503.81;;;-145.69;100.00
1726;BME280;41776;48.260;8.928;2022-10-26T02:07:24;52491.91;;;-145.69;100.00
1726;BME280;41776;48.260;8.928;2022-10-26T02:09:59;52525.59;;;-145.69;100.00
1726;BME280;41776;48.260;8.928;2022-10-26T02:12:37;52493.91;;;-145.69;100.00
1726;BME280;41776;48.260;8.928;2022-10-26T02:15:11;52507.75;;;-145.69;100.00
1726;BME280;41776;48.260;8.928;2022-10-26T02:17:45;52495.88;;;-145.69;100.00
1726;BME280;41776;48.260;8.928;2022-10-26T02:20:17;52539.44;;;-145.69;100.00
1726;BME280;41776;48.260;8.928;2022-10-26T02:22:49;52507.75;;;-145.69;100.00
1726;BME280;41776;48.260;8.928;2022-10-26T02:25:18;52513.69;;;-145.69;100.00
1726;BME280;41776;48.260;8.928;2022-10-26T02:27:49;52487.97;;;-145.69;100.00
1726;BME280;41776;48.260;8.928;2022-10-26T02:30:17;52476.06;;;-145.69;100.00
1726;BME280;41776;48.260;8.928;2022-10-26T02:32:47;52507.75;;;-145.69;100.00
1726;BME280;41776;48.260;8.928;2022-10-26T02:35:16;52493.91;;;-145.69;100.00
1726;BME280;41776;48.260;8.928;2022-10-26T02:37:45;52487.97;;;-145.69;100.00
1726;BME280;41776;48.260;8.928;2022-10-26T02:40:16;52499.84;;;-145.69;100.00
1726;BME280;41776;48.260;8.928;2022-10-26T02:42:44;52497.84;;;-145.69;100.00
1726;BME280;41776;48.260;8.928;2022-10-26T02:45:16;52495.88;;;-145.69;100.00
1726;BME280;41776;48.260;8.928;2022-10-26T02:47:45;52480.03;;;-145.69;100.00
1726;BME280;41776;48.260;8.928;2022-10-26T02:50:12;52527.56;;;-145.69;100.00
1726;BME280;41776;48.260;8.928;2022-10-26T02:52:43;52521.63;;;-145.69;100.00
1726;BME280;41776;48.260;8.928;2022-10-26T02:55:17;52519.63;;;-145.69;100.00
1726;BME280;41776;48.260;8.928;2022-10-26T02:57:46;52527.56;;;-145.69;100.00
1726;BME280;41776;48.260;8.928;2022-10-26T03:00:17;52472.13;;;-145.69;100.00
1726;BME280;41776;48.260;8.928;2022-10-26T03:02:50;52495.88;;;-145.69;100.00
1726;BME280;41776;48.260;8.928;2022-10-26T03:05:19;52503.81;;;-145.69;100.00
1726;BME280;41776;48.260;8.928;2022-10-26T03:07:46;52452.31;;;-145.69;100.00
1726;BME280;41776;48.260;8.928;2022-10-26T03:10:13;52507.75;;;-145.69;100.00
1726;BME280;41776;48.260;8.928;2022-10-26T03:12:40;52495.88;;;-145.69;100.00
1726;BME280;41776;48.260;8.928;2022-10-26T03:15:07;52507.75;;;-145.69;100.00
1726;BME280;41776;48.260;8.928;2022-10-26T03:17:33;52501.81;;;-145.69;100.00
1726;BME280;41776;48.260;8.928;2022-10-26T03:20:02;52487.97;;;-145.69;100.00
1726;BME280;41776;48.260;8.928;2022-10-26T03:22:29;52478.06;;;-145.69;100.00
1726;BME280;41776;48.260;8.928;2022-10-26T03:24:55;52493.91;;;-145.69;100.00
1726;BME280;41776;48.260;8.928;2022-10-26T03:27:22;52484.00;;;-145.69;100.00
1726;BME280;41776;48.260;8.928;2022-10-26T03:29:48;52484.00;;;-145.69;100.00
1726;BME280;41776;48.260;8.928;2022-10-26T03:32:15;52505.78;;;-145.69;100.00
1726;BME280;41776;48.260;8.928;2022-10-26T03:34:41;52487.97;;;-145.69;100.00
1726;BME280;41776;48.260;8.928;2022-10-26T03:37:09;52493.91;;;-145.69;100.00
1726;BME280;41776;48.260;8.928;2022-10-26T03:39:35;52511.72;;;-145.69;100.00
1726;BME280;41776;48.260;8.928;2022-10-26T03:42:02;52476.06;;;-145.69;100.00
1726;BME280;41776;48.260;8.928;2022-10-26T03:44:29;52474.09;;;-145.69;100.00
1726;BME280;41776;48.260;8.928;2022-10-26T03:46:55;52480.03;;;-145.69;100.00
1726;BME280;41776;48.260;8.928;2022-10-26T03:49:22;52513.69;;;-145.69;100.00
1726;BME280;41776;48.260;8.928;2022-10-26T03:51:48;52505.78;;;-145.69;100.00
1726;BME280;41776;48.260;8.928;2022-10-26T03:54:16;52511.72;;;-145.69;100.00
1726;BME280;41776;48.260;8.928;2022-10-26T03:56:43;52499.84;;;-145.69;100.00
1726;BME280;41776;48.260;8.928;2022-10-26T03:59:09;52507.75;;;-145.69;100.00
1726;BME280;41776;48.260;8.928;2022-10-26T04:01:36;52484.00;;;-145.69;100.00
1726;BME280;41776;48.260;8.928;2022-10-26T04:04:03;52521.63;;;-145.69;100.00
1726;BME280;41776;48.260;8.928;2022-10-26T04:06:29;52533.50;;;-145.69;100.00
1726;BME280;41776;48.260;8.928;2022-10-26T04:08:55;52523.59;;;-145.69;100.00
1726;BME280;41776;48.260;8.928;2022-10-26T04:11:28;52472.13;;;-145.69;100.00
1726;BME280;41776;48.260;8.928;2022-10-26T04:13:54;52499.84;;;-145.69;100.00
1726;BME280;41776;48.260;8.928;2022-10-26T04:16:23;52499.84;;;-145.69;100.00
1726;BME280;41776;48.260;8.928;2022-10-26T04:18:50;52499.84;;;-145.69;100.00
1726;BME280;41776;48.260;8.928;2022-10-26T04:21:16;52513.69;;;-145.69;100.00
1726;BME280;41776;48.260;8.928;2022-10-26T04:23:43;52507.75;;;-145.69;100.00
1726;BME280;41776;48.260;8.928;2022-10-26T04:26:09;52515.69;;;-145.69;100.00
1726;BME280;41776;48.260;8.928;2022-10-26T04:28:37;52523.59;;;-145.69;100.00
1726;BME280;41776;48.260;8.928;2022-10-26T04:31:04;52480.03;;;-145.69;100.00
1726;BME280;41776;48.260;8.928;2022-10-26T04:33:30;52515.69;;;-145.69;100.00
1726;BME280;41776;48.260;8.928;2022-10-26T04:35:58;52521.63;;;-145.69;100.00
1726;BME280;41776;48.260;8.928;2022-10-26T04:38:24;52507.75;;;-145.69;100.00
1726;BME280;41776;48.260;8.928;2022-10-26T04:40:51;52495.88;;;-145.69;100.00
1726;BME280;41776;48.260;8.928;2022-10-26T04:43:17;52517.66;;;-145.69;100.00
1726;BME280;41776;48.260;8.928;2022-10-26T04:45:45;52503.81;;;-145.69;100.00
1726;BME280;41776;48.260;8.928;2022-10-26T04:48:12;52480.03;;;-145.69;100.00
1726;BME280;41776;48.260;8.928;2022-10-26T04:50:39;52509.75;;;-145.69;100.00
1726;BME280;41776;48.260;8.928;2022-10-26T04:53:07;52515.69;;;-145.69;100.00
1726;BME280;41776;48.260;8.928;2022-10-26T04:55:34;52519.63;;;-145.69;100.00
1726;BME280;41776;48.260;8.928;2022-10-26T04:58:01;52482.00;;;-145.69;100.00
1726;BME280;41776;48.260;8.928;2022-10-26T05:00:28;52489.94;;;-145.69;100.00
1726;BME280;41776;48.260;8.928;2022-10-26T05:03:01;52462.22;;;-145.69;100.00
1726;BME280;41776;48.260;8.928;2022-10-26T05:05:30;52487.97;;;-145.69;100.00
1726;BME280;41776;48.260;8.928;2022-10-26T05:07:56;52511.72;;;-145.69;100.00
1726;BME280;41776;48.260;8.928;2022-10-26T05:10:23;52472.13;;;-145.69;100.00
1726;BME280;41776;48.260;8.928;2022-10-26T05:12:50;52482.00;;;-145.69;100.00
1726;BME280;41776;48.260;8.928;2022-10-26T05:15:17;52460.22;;;-145.69;100.00
1726;BME280;41776;48.260;8.928;2022-10-26T05:17:44;52493.91;;;-145.69;100.00
1726;BME280;41776;48.260;8.928;2022-10-26T05:20:12;52462.22;;;-145.69;100.00
1726;BME280;41776;48.260;8.928;2022-10-26T05:22:38;52468.16;;;-145.69;100.00
1726;BME280;41776;48.260;8.928;2022-10-26T05:25:06;52493.91;;;-145.69;100.00
1726;BME280;41776;48.260;8.928;2022-10-26T05:27:32;52422.59;;;-145.69;100.00
1726;BME280;41776;48.260;8.928;2022-10-26T05:29:59;52489.94;;;-145.69;100.00
1726;BME280;41776;48.260;8.928;2022-10-26T05:32:25;52452.31;;;-145.69;100.00
1726;BME280;41776;48.260;8.928;2022-10-26T05:34:51;52480.03;;;-145.69;100.00
1726;BME280;41776;48.260;8.928;2022-10-26T05:37:19;52484.00;;;-145.69;100.00
1726;BME280;41776;48.260;8.928;2022-10-26T05:39:46;52472.13;;;-145.69;100.00
1726;BME280;41776;48.260;8.928;2022-10-26T05:42:12;52491.91;;;-145.69;100.00
1726;BME280;41776;48.260;8.928;2022-10-26T05:44:39;52509.75;;;-145.69;100.00
1726;BME280;41776;48.260;8.928;2022-10-26T05:47:05;52482.00;;;-145.69;100.00
1726;BME280;41776;48.260;8.928;2022-10-26T05:49:31;52507.75;;;-145.69;100.00
1726;BME280;41776;48.260;8.928;2022-10-26T05:51:58;52499.84;;;-145.69;100.00
1726;BME280;41776;48.260;8.928;2022-10-26T05:54:26;52468.16;;;-145.69;100.00
1726;BME280;41776;48.260;8.928;2022-10-26T05:56:52;52503.81;;;-145.69;100.00
1726;BME280;41776;48.260;8.928;2022-10-26T05:59:20;52474.09;;;-145.69;100.00
1726;BME280;41776;48.260;8.928;2022-10-26T06:01:58;52466.16;;;-145.69;100.00
1726;BME280;41776;48.260;8.928;2022-10-26T06:04:35;52503.81;;;-145.69;100.00
1726;BME280;41776;48.260;8.928;2022-10-26T06:07:03;52482.00;;;-145.69;100.00
1726;BME280;41776;48.260;8.928;2022-10-26T06:09:36;52505.78;;;-145.69;100.00
1726;BME280;41776;48.260;8.928;2022-10-26T06:12:03;52474.09;;;-145.69;100.00
1726;BME280;41776;48.260;8.928;2022-10-26T06:14:32;52491.91;;;-145.69;100.00
1726;BME280;41776;48.260;8.928;2022-10-26T06:17:07;52450.31;;;-145.69;100.00
1726;BME280;41776;48.260;8.928;2022-10-26T06:19:50;52507.75;;;-145.69;100.00
1726;BME280;41776;48.260;8.928;2022-10-26T06:22:34;52480.03;;;-145.69;100.00
1726;BME280;41776;48.260;8.928;2022-10-26T06:25:14;52462.22;;;-145.69;100.00
1726;BME280;41776;48.260;8.928;2022-10-26T06:27:45;52468.16;;;-145.69;100.00
1726;BME280;41776;48.260;8.928;2022-10-26T06:30:21;52489.94;;;-145.69;100.00
1726;BME280;41776;48.260;8.928;2022-10-26T06:32:48;52482.00;;;-145.69;100.00
1726;BME280;41776;48.260;8.928;2022-10-26T06:35:24;52472.13;;;-145.69;100.00
1726;BME280;41776;48.260;8.928;2022-10-26T06:37:59;52519.63;;;-145.69;100.00
1726;BME280;41776;48.260;8.928;2022-10-26T06:40:30;52495.88;;;-145.69;100.00
1726;BME280;41776;48.260;8.928;2022-10-26T06:42:58;52484.00;;;-145.69;100.00
1726;BME280;41776;48.260;8.928;2022-10-26T06:45:25;52470.13;;;-145.69;100.00
1726;BME280;41776;48.260;8.928;2022-10-26T06:47:54;52489.94;;;-145.69;100.00
1726;BME280;41776;48.260;8.928;2022-10-26T06:50:30;52466.16;;;-145.69;100.00
1726;BME280;41776;48.260;8.928;2022-10-26T06:53:05;52472.13;;;-145.69;100.00
1726;BME280;41776;48.260;8.928;2022-10-26T06:55:40;52537.47;;;-145.69;100.00
1726;BME280;41776;48.260;8.928;2022-10-26T06:58:10;52468.16;;;-145.69;100.00
1726;BME280;41776;48.260;8.928;2022-10-26T07:00:39;52499.84;;;-145.69;100.00
1726;BME280;41776;48.260;8.928;2022-10-26T07:03:06;52491.91;;;-145.69;100.00
1726;BME280;41776;48.260;8.928;2022-10-26T07:05:32;52470.13;;;-145.69;100.00
1726;BME280;41776;48.260;8.928;2022-10-26T07:07:59;52460.22;;;-145.69;100.00
1726;BME280;41776;48.260;8.928;2022-10-26T07:10:25;52468.16;;;-145.69;100.00
1726;BME280;41776;48.260;8.928;2022-10-26T07:12:53;52485.97;;;-145.69;100.00
1726;BME280;41776;48.260;8.928;2022-10-26T07:15:20;52474.09;;;-145.69;100.00
1726;BME280;41776;48.260;8.928;2022-10-26T07:17:47;52468.16;;;-145.69;100.00
1726;BME280;41776;48.260;8.928;2022-10-26T07:20:15;52480.03;;;-145.69;100.00
1726;BME280;41776;48.260;8.928;2022-10-26T07:22:42;52454.28;;;-145.69;100.00
1726;BME280;41776;48.260;8.928;2022-10-26T07:25:09;52456.28;;;-145.69;100.00
1726;BME280;41776;48.260;8.928;2022-10-26T07:27:36;52482.00;;;-145.69;100.00
1726;BME280;41776;48.260;8.928;2022-10-26T07:30:05;52468.16;;;-145.69;100.00
1726;BME280;41776;48.260;8.928;2022-10-26T07:32:32;52456.28;;;-145.69;100.00
1726;BME280;41776;48.260;8.928;2022-10-26T07:34:58;52480.03;;;-145.69;100.00
1726;BME280;41776;48.260;8.928;2022-10-26T07:37:25;52466.16;;;-145.69;100.00
1726;BME280;41776;48.260;8.928;2022-10-26T07:39:51;52480.03;;;-145.69;100.00
1726;BME280;41776;48.260;8.928;2022-10-26T07:42:18;52484.00;;;-145.69;100.00
1726;BME280;41776;48.260;8.928;2022-10-26T07:44:44;52484.00;;;-145.69;100.00
1726;BME280;41776;48.260;8.928;2022-10-26T07:47:12;52448.34;;;-145.69;100.00
1726;BME280;41776;48.260;8.928;2022-10-26T07:49:39;52464.19;;;-145.69;100.00
1726;BME280;41776;48.260;8.928;2022-10-26T07:52:06;52408.75;;;-145.69;100.00
1726;BME280;41776;48.260;8.928;2022-10-26T07:54:32;52462.22;;;-145.69;100.00
1726;BME280;41776;48.260;8.928;2022-10-26T07:56:59;52412.69;;;-145.69;100.00
1726;BME280;41776;48.260;8.928;2022-10-26T07:59:25;52484.00;;;-145.69;100.00
1726;BME280;41776;48.260;8.928;2022-10-26T08:01:52;52452.31;;;-145.69;100.00
1726;BME280;41776;48.260;8.928;2022-10-26T08:04:20;52424.59;;;-145.69;100.00
1726;BME280;41776;48.260;8.928;2022-10-26T08:06:46;52412.69;;;-145.69;100.00
1726;BME280;41776;48.260;8.928;2022-10-26T08:09:13;52426.56;;;-145.69;100.00
1726;BME280;41776;48.260;8.928;2022-10-26T08:11:39;52404.78;;;-145.69;100.00
1726;BME280;41776;48.260;8.928;2022-10-26T08:14:06;52410.72;;;-145.69;100.00
1726;BME280;41776;48.260;8.928;2022-10-26T08:16:32;52406.75;;;-145.69;100.00
1726;BME280;41776;48.260;8.928;2022-10-26T08:18:59;52386.97;;;-145.69;100.00
1726;BME280;41776;48.260;8.928;2022-10-26T08:21:27;52394.88;;;-145.69;100.00
1726;BME280;41776;48.260;8.928;2022-10-26T08:23:53;52384.97;;;-145.69;100.00
1726;BME280;41776;48.260;8.928;2022-10-26T08:26:23;52384.97;;;-145.69;100.00
1726;BME280;41776;48.260;8.928;2022-10-26T08:28:49;52367.16;;;-145.69;100.00
1726;BME280;41776;48.260;8.928;2022-10-26T08:31:21;52402.78;;;-145.69;100.00
1726;BME280;41776;48.260;8.928;2022-10-26T08:33:48;52353.28;;;-145.69;100.00
1726;BME280;41776;48.260;8.928;2022-10-26T08:36:22;52381.00;;;-145.69;100.00
1726;BME280;41776;48.260;8.928;2022-10-26T08:38:50;52392.91;;;-145.69;100.00
1726;BME280;41776;48.260;8.928;2022-10-26T08:41:19;52396.84;;;-145.69;100.00
1726;BME280;41776;48.260;8.928;2022-10-26T08:43:53;52388.94;;;-145.69;100.00
1726;BME280;41776;48.260;8.928;2022-10-26T08:46:25;52377.06;;;-145.69;100.00
1726;BME280;41776;48.260;8.928;2022-10-26T08:48:55;52388.94;;;-145.69;100.00
1726;BME280;41776;48.260;8.928;2022-10-26T08:51:26;52394.88;;;-145.69;100.00
1726;BME280;41776;48.260;8.928;2022-10-26T08:53:59;52384.97;;;-145.69;100.00
1726;BME280;41776;48.260;8.928;2022-10-26T08:56:30;52384.97;;;-145.69;100.00
1726;BME280;41776;48.260;8.928;2022-10-26T08:59:02;52396.84;;;-145.69;100.00
1726;BME280;41776;48.260;8.928;2022-10-26T09:01:32;52386.97;;;-145.69;100.00
1726;BME280;41776;48.260;8.928;2022-10-26T09:04:00;52402.78;;;-145.69;100.00
1726;BME280;41776;48.260;8.928;2022-10-26T09:06:32;52386.97;;;-145.69;100.00
1726;BME280;41776;48.260;8.928;2022-10-26T09:09:06;52394.88;;;-145.69;100.00
1726;BME280;41776;48.260;8.928;2022-10-26T09:11:50;52428.53;;;-145.69;100.00
1726;BME280;41776;48.260;8.928;2022-10-26T09:14:33;52373.09;;;-145.69;100.00
1726;BME280;41776;48.260;8.928;2022-10-26T09:17:08;52357.25;;;-145.69;100.00
1726;BME280;41776;48.260;8.928;2022-10-26T09:19:57;52396.84;;;-145.69;100.00
1726;BME280;41776;48.260;8.928;2022-10-26T09:22:31;52381.00;;;-145.69;99.01
1726;BME280;41776;48.260;8.928;2022-10-26T09:25:05;52392.91;;;-145.69;100.00
1726;BME280;41776;48.260;8.928;2022-10-26T09:27:42;52369.13;;;-145.69;100.00
1726;BME280;41776;48.260;8.928;2022-10-26T09:30:13;52381.00;;;-145.69;100.00
1726;BME280;41776;48.260;8.928;2022-10-26T09:32:42;52369.13;;;-145.69;100.00
1726;BME280;41776;48.260;8.928;2022-10-26T09:35:14;52381.00;;;-145.69;99.19
1726;BME280;41776;48.260;8.928;2022-10-26T09:37:43;52351.31;;;-145.69;96.02
1726;BME280;41776;48.260;8.928;2022-10-26T09:40:18;52381.00;;;-145.69;96.48
1726;BME280;41776;48.260;8.928;2022-10-26T09:42:50;52377.06;;;-145.69;100.00
1726;BME280;41776;48.260;8.928;2022-10-26T09:45:24;52341.41;;;-145.69;99.94
1726;BME280;41776;48.260;8.928;2022-10-26T09:47:56;52390.91;;;-145.69;96.49
1726;BME280;41776;48.260;8.928;2022-10-26T09:50:28;52341.41;;;-145.69;94.69
1726;BME280;41776;48.260;8.928;2022-10-26T09:52:56;52377.06;;;-145.69;97.25
1726;BME280;41776;48.260;8.928;2022-10-26T09:55:24;52355.28;;;-145.69;95.90
1726;BME280;41776;48.260;8.928;2022-10-26T09:57:54;52384.97;;;-145.69;94.39
1726;BME280;41776;48.260;8.928;2022-10-26T10:00:23;52335.47;;;-145.69;97.64
1726;BME280;41776;48.260;8.928;2022-10-26T10:02:51;52349.31;;;-145.69;99.47
1726;BME280;41776;48.260;8.928;2022-10-26T10:05:27;52373.09;;;-145.69;98.98
1726;BME280;41776;48.260;8.928;2022-10-26T10:08:09;52359.22;;;-145.69;96.25
1726;BME280;41776;48.260;8.928;2022-10-26T10:10:38;52363.19;;;-145.69;98.02
1726;BME280;41776;48.260;8.928;2022-10-26T10:13:20;52353.28;;;-145.69;97.04
1726;BME280;41776;48.260;8.928;2022-10-26T10:15:51;52384.97;;;-145.69;95.20
1726;BME280;41776;48.260;8.928;2022-10-26T10:18:20;52349.31;;;-145.69;95.83
1726;BME280;41776;48.260;8.928;2022-10-26T10:20:53;52373.09;;;-145.69;94.45
1726;BME280;41776;48.260;8.928;2022-10-26T10:23:26;52365.16;;;-145.69;94.35
1726;BME280;41776;48.260;8.928;2022-10-26T10:26:05;52355.28;;;-145.69;96.69
1726;BME280;41776;48.260;8.928;2022-10-26T10:28:33;52345.38;;;-145.69;100.00
1726;BME280;41776;48.260;8.928;2022-10-26T10:31:02;52367.16;;;-145.69;95.93
1726;BME280;41776;48.260;8.928;2022-10-26T10:33:37;52345.38;;;-145.69;97.07
1726;BME280;41776;48.260;8.928;2022-10-26T10:36:07;52331.50;;;-145.69;95.46
1726;BME280;41776;48.260;8.928;2022-10-26T10:38:42;52337.44;;;-145.69;100.00
1726;BME280;41776;48.260;8.928;2022-10-26T10:41:17;52392.91;;;-145.69;97.88
1726;BME280;41776;48.260;8.928;2022-10-26T10:43:46;52365.16;;;-145.69;100.00
1726;BME280;41776;48.260;8.928;2022-10-26T10:46:20;52333.47;;;-145.69;100.00
1726;BME280;41776;48.260;8.928;2022-10-26T10:48:51;52365.16;;;-145.69;99.05
1726;BME280;41776;48.260;8.928;2022-10-26T10:51:20;52341.41;;;-145.69;99.51
1726;BME280;41776;48.260;8.928;2022-10-26T10:53:49;52351.31;;;-145.69;100.00
1726;BME280;41776;48.260;8.928;2022-10-26T10:56:32;52369.13;;;-145.69;100.00
1726;BME280;41776;48.260;8.928;2022-10-26T10:59:20;52381.00;;;-145.69;100.00
1726;BME280;41776;48.260;8.928;2022-10-26T11:02:01;52341.41;;;-145.69;100.00
1726;BME280;41776;48.260;8.928;2022-10-26T11:04:46;52347.34;;;-145.69;100.00
1726;BME280;41776;48.260;8.928;2022-10-26T11:07:19;52363.19;;;-145.69;100.00
1726;BME280;41776;48.260;8.928;2022-10-26T11:09:48;52369.13;;;-145.69;100.00
1726;BME280;41776;48.260;8.928;2022-10-26T11:12:20;52369.13;;;-145.69;100.00
1726;BME280;41776;48.260;8.928;2022-10-26T11:14:53;52347.34;;;-145.69;100.00
1726;BME280;41776;48.260;8.928;2022-10-26T11:17:24;52329.53;;;-145.69;97.23
1726;BME280;41776;48.260;8.928;2022-10-26T11:19:56;52341.41;;;-145.69;99.01
1726;BME280;41776;48.260;8.928;2022-10-26T11:22:26;52343.38;;;-145.69;98.44
1726;BME280;41776;48.260;8.928;2022-10-26T11:24:57;52329.53;;;-145.69;93.41
1726;BME280;41776;48.260;8.928;2022-10-26T11:27:30;52343.38;;;-145.69;93.53
1726;BME280;41776;48.260;8.928;2022-10-26T11:30:02;52333.47;;;-145.69;95.77
1726;BME280;41776;48.260;8.928;2022-10-26T11:32:34;52333.47;;;-145.69;94.16
1726;BME280;41776;48.260;8.928;2022-10-26T11:35:10;52321.59;;;-145.69;97.04
1726;BME280;41776;48.260;8.928;2022-10-26T11:37:44;52365.16;;;-145.69;96.01
1726;BME280;41776;48.260;8.928;2022-10-26T11:40:21;52343.38;;;-145.69;97.22
1726;BME280;41776;48.260;8.928;2022-10-26T11:42:56;52373.09;;;-145.69;95.34
1726;BME280;41776;48.260;8.928;2022-10-26T11:45:30;52349.31;;;-145.69;96.91
1726;BME280;41776;48.260;8.928;2022-10-26T11:48:03;52339.44;;;-145.69;97.44
1726;BME280;41776;48.260;8.928;2022-10-26T11:50:33;52377.06;;;-145.69;97.74
1726;BME280;41776;48.260;8.928;2022-10-26T11:53:08;52361.22;;;-145.69;97.83
1726;BME280;41776;48.260;8.928;2022-10-26T11:55:37;52329.53;;;-145.69;93.51
1726;BME280;41776;48.260;8.928;2022-10-26T11:58:10;52333.47;;;-145.69;92.91
1726;BME280;41776;48.260;8.928;2022-10-26T12:00:42;52303.78;;;-145.69;91.44
1726;BME280;41776;48.260;8.928;2022-10-26T12:03:15;52333.47;;;-145.69;89.00
1726;BME280;41776;48.260;8.928;2022-10-26T12:05:47;52319.63;;;-145.69;87.32
1726;BME280;41776;48.260;8.928;2022-10-26T12:08:19;52319.63;;;-145.69;87.09
1726;BME280;41776;48.260;8.928;2022-10-26T12:10:54;52280.00;;;-145.69;85.47
1726;BME280;41776;48.260;8.928;2022-10-26T12:13:29;52287.94;;;-145.69;87.60
1726;BME280;41776;48.260;8.928;2022-10-26T12:16:04;52291.91;;;-145.69;77.55
1726;BME280;41776;48.260;8.928;2022-10-26T12:18:37;52301.81;;;-145.69;80.05
1726;BME280;41776;48.260;8.928;2022-10-26T12:21:07;52305.75;;;-145.69;81.28
1726;BME280;41776;48.260;8.928;2022-10-26T12:23:36;52285.97;;;-145.69;79.13
1726;BME280;41776;48.260;8.928;2022-10-26T12:29:32;52357.25;;;-145.69;80.17
1726;BME280;41776;48.260;8.928;2022-10-26T12:32:01;52343.38;;;-145.69;80.58
1726;BME280;41776;48.260;8.928;2022-10-26T12:35:02;52293.88;;;-145.69;75.50
1726;BME280;41776;48.260;8.928;2022-10-26T12:37:34;52297.84;;;-145.69;75.97
1726;BME280;41776;48.260;8.928;2022-10-26T12:43:32;52252.28;;;-145.69;78.32
1726;BME280;41776;48.260;8.928;2022-10-26T12:52:34;52283.97;;;-145.69;76.07
1726;BME280;41776;48.260;8.928;2022-10-26T12:55:19;52285.97;;;-145.69;77.52
1726;BME280;41776;48.260;8.928;2022-10-26T12:57:59;52291.91;;;-145.69;79.07
1726;BME280;41776;48.260;8.928;2022-10-26T13:00:31;52291.91;;;-145.69;77.32
1726;BME280;41776;48.260;8.928;2022-10-26T13:03:11;52289.91;;;-145.69;75.28
1726;BME280;41776;48.260;8.928;2022-10-26T13:06:00;52285.97;;;-145.69;78.48
1726;BME280;41776;48.260;8.928;2022-10-26T13:08:39;52268.13;;;-145.69;77.34
1726;BME280;41776;48.260;8.928;2022-10-26T13:11:12;52283.97;;;-145.69;72.44
1726;BME280;41776;48.260;8.928;2022-10-26T13:13:41;52289.91;;;-145.69;78.91
1726;BME280;41776;48.260;8.928;2022-10-26T13:16:10;52297.84;;;-145.69;78.26